sensor_id;sensor_type;location;lat;lon;timestamp;temperature;humidity
5059;DHT22;2548;52.050;11.036;2023-09-18T00:01:19;17.90;99.90
5059;DHT22;2548;52.050;11.036;2023-09-18T00:03:46;17.90;99.90
5059;DHT22;2548;52.050;11.036;2023-09-18T00:06:15;17.80;99.90
5059;DHT22;2548;52.050;11.036;2023-09-18T00:08:43;17.80;99.90
5059;DHT22;2548;52.050;11.036;2023-09-18T00:11:10;17.80;99.90
5059;DHT22;2548;52.050;11.036;2023-09-18T00:13:39;17.80;99.90
5059;DHT22;2548;52.050;11.036;2023-09-18T00:16:06;17.80;99.90
5059;DHT22;2548;52.050;11.036;2023-09-18T00:18:33;17.80;99.90
5059;DHT22;2548;52.050;11.036;2023-09-18T00:21:01;17.80;99.90
5059;DHT22;2548;52.050;11.036;2023-09-18T00:23:30;17.80;99.90
5059;DHT22;2548;52.050;11.036;2023-09-18T00:25:59;17.80;99.90
5059;DHT22;2548;52.050;11.036;2023-09-18T00:28:26;17.80;99.90
5059;DHT22;2548;52.050;11.036;2023-09-18T00:30:53;17.70;99.90
5059;DHT22;2548;52.050;11.036;2023-09-18T00:33:21;17.70;99.90
5059;DHT22;2548;52.050;11.036;2023-09-18T00:35:49;17.70;99.90
5059;DHT22;2548;52.050;11.036;2023-09-18T00:38:17;17.60;99.90
5059;DHT22;2548;52.050;11.036;2023-09-18T00:40:46;17.60;99.90
5059;DHT22;2548;52.050;11.036;2023-09-18T00:43:14;17.60;99.90
5059;DHT22;2548;52.050;11.036;2023-09-18T00:45:43;17.60;99.90
5059;DHT22;2548;52.050;11.036;2023-09-18T00:48:12;17.60;99.90
5059;DHT22;2548;52.050;11.036;2023-09-18T00:50:39;17.60;99.90
5059;DHT22;2548;52.050;11.036;2023-09-18T00:53:08;17.60;99.90
5059;DHT22;2548;52.050;11.036;2023-09-18T00:55:37;17.60;99.90
5059;DHT22;2548;52.050;11.036;2023-09-18T00:58:07;17.60;99.90
5059;DHT22;2548;52.050;11.036;2023-09-18T01:00:35;17.70;99.90
5059;DHT22;2548;52.050;11.036;2023-09-18T01:03:03;17.60;99.90
5059;DHT22;2548;52.050;11.036;2023-09-18T01:05:31;17.70;99.90
5059;DHT22;2548;52.050;11.036;2023-09-18T01:07:59;17.60;99.90
5059;DHT22;2548;52.050;11.036;2023-09-18T01:10:32;17.60;99.90
5059;DHT22;2548;52.050;11.036;2023-09-18T01:13:07;17.60;99.90
5059;DHT22;2548;52.050;11.036;2023-09-18T01:15:43;17.60;99.90
5059;DHT22;2548;52.050;11.036;2023-09-18T01:18:11;17.50;99.90
5059;DHT22;2548;52.050;11.036;2023-09-18T01:20:39;17.60;99.90
5059;DHT22;2548;52.050;11.036;2023-09-18T01:23:08;17.60;99.90
5059;DHT22;2548;52.050;11.036;2023-09-18T01:25:37;17.50;99.90
5059;DHT22;2548;52.050;11.036;2023-09-18T01:28:05;17.50;99.90
5059;DHT22;2548;52.050;11.036;2023-09-18T01:30:32;17.40;99.90
5059;DHT22;2548;52.050;11.036;2023-09-18T01:33:02;17.40;99.90
5059;DHT22;2548;52.050;11.036;2023-09-18T01:35:31;17.40;99.90
5059;DHT22;2548;52.050;11.036;2023-09-18T01:38:00;17.40;99.90
5059;DHT22;2548;52.050;11.036;2023-09-18T01:40:30;17.30;99.90
5059;DHT22;2548;52.050;11.036;2023-09-18T01:42:59;17.20;99.90
5059;DHT22;2548;52.050;11.036;2023-09-18T01:45:26;17.30;99.90
5059;DHT22;2548;52.050;11.036;2023-09-18T01:47:54;17.30;99.90
5059;DHT22;2548;52.050;11.036;2023-09-18T01:50:21;17.30;99.90
5059;DHT22;2548;52.050;11.036;2023-09-18T01:52:48;17.30;99.90
5059;DHT22;2548;52.050;11.036;2023-09-18T01:55:16;17.30;99.90
5059;DHT22;2548;52.050;11.036;2023-09-18T01:57:45;17.20;99.90
5059;DHT22;2548;52.050;11.036;2023-09-18T02:00:14;17.20;99.90
5059;DHT22;2548;52.050;11.036;2023-09-18T02:02:41;17.10;99.90
5059;DHT22;2548;52.050;11.036;2023-09-18T02:05:09;17.10;99.90
5059;DHT22;2548;52.050;11.036;2023-09-18T02:07:36;17.00;99.90
5059;DHT22;2548;52.050;11.036;2023-09-18T02:10:05;17.00;99.90
5059;DHT22;2548;52.050;11.036;2023-09-18T02:12:32;17.00;99.90
5059;DHT22;2548;52.050;11.036;2023-09-18T02:15:04;16.90;99.90
5059;DHT22;2548;52.050;11.036;2023-09-18T02:17:33;16.90;99.90
5059;DHT22;2548;52.050;11.036;2023-09-18T02:20:00;16.90;99.90
5059;DHT22;2548;52.050;11.036;2023-09-18T02:22:37;16.90;99.90
5059;DHT22;2548;52.050;11.036;2023-09-18T02:25:06;16.90;99.90
5059;DHT22;2548;52.050;11.036;2023-09-18T02:27:34;16.90;99.90
5059;DHT22;2548;52.050;11.036;2023-09-18T02:30:04;16.90;99.90
5059;DHT22;2548;52.050;11.036;2023-09-18T02:32:32;17.00;99.90
5059;DHT22;2548;52.050;11.036;2023-09-18T02:35:00;17.00;99.90
5059;DHT22;2548;52.050;11.036;2023-09-18T02:37:28;16.90;99.90
5059;DHT22;2548;52.050;11.036;2023-09-18T02:39:56;16.90;99.90
5059;DHT22;2548;52.050;11.036;2023-09-18T02:42:24;16.90;99.90
5059;DHT22;2548;52.050;11.036;2023-09-18T02:44:52;16.90;99.90
5059;DHT22;2548;52.050;11.036;2023-09-18T02:47:20;16.90;99.90
5059;DHT22;2548;52.050;11.036;2023-09-18T02:49:48;16.90;99.90
5059;DHT22;2548;52.050;11.036;2023-09-18T02:52:15;16.80;99.90
5059;DHT22;2548;52.050;11.036;2023-09-18T02:54:43;16.80;99.90
5059;DHT22;2548;52.050;11.036;2023-09-18T02:57:10;16.70;99.90
5059;DHT22;2548;52.050;11.036;2023-09-18T02:59:38;16.70;99.90
5059;DHT22;2548;52.050;11.036;2023-09-18T03:02:06;16.60;99.90
5059;DHT22;2548;52.050;11.036;2023-09-18T03:04:34;16.50;99.90
5059;DHT22;2548;52.050;11.036;2023-09-18T03:07:03;16.50;99.90
5059;DHT22;2548;52.050;11.036;2023-09-18T03:09:31;16.40;99.90
5059;DHT22;2548;52.050;11.036;2023-09-18T03:11:59;16.40;99.90
5059;DHT22;2548;52.050;11.036;2023-09-18T03:14:27;16.30;99.90
5059;DHT22;2548;52.050;11.036;2023-09-18T03:16:57;16.40;99.90
5059;DHT22;2548;52.050;11.036;2023-09-18T03:19:24;16.30;99.90
5059;DHT22;2548;52.050;11.036;2023-09-18T03:21:59;16.40;99.90
5059;DHT22;2548;52.050;11.036;2023-09-18T03:24:30;16.30;99.90
5059;DHT22;2548;52.050;11.036;2023-09-18T03:27:03;16.30;99.90
5059;DHT22;2548;52.050;11.036;2023-09-18T03:29:37;16.30;99.90
5059;DHT22;2548;52.050;11.036;2023-09-18T03:32:05;16.20;99.90
5059;DHT22;2548;52.050;11.036;2023-09-18T03:34:39;16.20;99.90
5059;DHT22;2548;52.050;11.036;2023-09-18T03:37:08;16.20;99.90
5059;DHT22;2548;52.050;11.036;2023-09-18T03:39:36;16.20;99.90
5059;DHT22;2548;52.050;11.036;2023-09-18T03:42:04;16.20;99.90
5059;DHT22;2548;52.050;11.036;2023-09-18T03:44:38;16.10;99.90
5059;DHT22;2548;52.050;11.036;2023-09-18T03:47:06;16.10;99.90
5059;DHT22;2548;52.050;11.036;2023-09-18T03:49:33;16.10;99.90
5059;DHT22;2548;52.050;11.036;2023-09-18T03:52:04;16.10;99.90
5059;DHT22;2548;52.050;11.036;2023-09-18T03:54:33;16.10;99.90
5059;DHT22;2548;52.050;11.036;2023-09-18T03:57:01;16.10;99.90
5059;DHT22;2548;52.050;11.036;2023-09-18T03:59:30;16.10;99.90
5059;DHT22;2548;52.050;11.036;2023-09-18T04:02:04;16.00;99.90
5059;DHT22;2548;52.050;11.036;2023-09-18T04:04:34;16.00;99.90
5059;DHT22;2548;52.050;11.036;2023-09-18T04:07:05;16.00;99.90
5059;DHT22;2548;52.050;11.036;2023-09-18T04:09:37;15.90;99.90
5059;DHT22;2548;52.050;11.036;2023-09-18T04:12:06;15.90;99.90
5059;DHT22;2548;52.050;11.036;2023-09-18T04:14:40;15.90;99.90
5059;DHT22;2548;52.050;11.036;2023-09-18T04:17:11;15.80;99.90
5059;DHT22;2548;52.050;11.036;2023-09-18T04:19:39;15.80;99.90
5059;DHT22;2548;52.050;11.036;2023-09-18T04:22:07;15.80;99.90
5059;DHT22;2548;52.050;11.036;2023-09-18T04:24:46;15.80;99.90
5059;DHT22;2548;52.050;11.036;2023-09-18T04:27:28;15.80;99.90
5059;DHT22;2548;52.050;11.036;2023-09-18T04:30:02;15.80;99.90
5059;DHT22;2548;52.050;11.036;2023-09-18T04:32:36;15.80;99.90
5059;DHT22;2548;52.050;11.036;2023-09-18T04:35:11;15.80;99.90
5059;DHT22;2548;52.050;11.036;2023-09-18T04:37:42;15.80;99.90
5059;DHT22;2548;52.050;11.036;2023-09-18T04:40:12;15.80;99.90
5059;DHT22;2548;52.050;11.036;2023-09-18T04:42:41;15.80;99.90
5059;DHT22;2548;52.050;11.036;2023-09-18T04:45:09;15.80;99.90
5059;DHT22;2548;52.050;11.036;2023-09-18T04:47:37;15.70;99.90
5059;DHT22;2548;52.050;11.036;2023-09-18T04:50:05;15.70;99.90
5059;DHT22;2548;52.050;11.036;2023-09-18T04:52:36;15.70;99.90
5059;DHT22;2548;52.050;11.036;2023-09-18T04:55:15;15.70;99.90
5059;DHT22;2548;52.050;11.036;2023-09-18T04:57:42;15.70;99.90
5059;DHT22;2548;52.050;11.036;2023-09-18T05:00:12;15.70;99.90
5059;DHT22;2548;52.050;11.036;2023-09-18T05:02:40;15.70;99.90
5059;DHT22;2548;52.050;11.036;2023-09-18T05:05:09;15.70;99.90
5059;DHT22;2548;52.050;11.036;2023-09-18T05:07:40;15.70;99.90
5059;DHT22;2548;52.050;11.036;2023-09-18T05:10:09;15.70;99.90
5059;DHT22;2548;52.050;11.036;2023-09-18T05:12:39;15.70;99.90
5059;DHT22;2548;52.050;11.036;2023-09-18T05:15:17;15.70;99.90
5059;DHT22;2548;52.050;11.036;2023-09-18T05:17:47;15.70;99.90
5059;DHT22;2548;52.050;11.036;2023-09-18T05:20:18;15.80;99.90
5059;DHT22;2548;52.050;11.036;2023-09-18T05:22:46;15.90;99.90
5059;DHT22;2548;52.050;11.036;2023-09-18T05:25:16;16.00;99.90
5059;DHT22;2548;52.050;11.036;2023-09-18T05:27:48;16.10;99.90
5059;DHT22;2548;52.050;11.036;2023-09-18T05:30:24;16.10;99.90
5059;DHT22;2548;52.050;11.036;2023-09-18T05:32:57;16.10;99.90
5059;DHT22;2548;52.050;11.036;2023-09-18T05:35:30;16.20;99.90
5059;DHT22;2548;52.050;11.036;2023-09-18T05:37:58;16.20;99.90
5059;DHT22;2548;52.050;11.036;2023-09-18T05:40:29;16.30;99.90
5059;DHT22;2548;52.050;11.036;2023-09-18T05:42:58;16.30;99.90
5059;DHT22;2548;52.050;11.036;2023-09-18T05:45:35;16.30;99.90
5059;DHT22;2548;52.050;11.036;2023-09-18T05:48:09;16.40;99.90
5059;DHT22;2548;52.050;11.036;2023-09-18T05:50:38;16.40;99.90
5059;DHT22;2548;52.050;11.036;2023-09-18T05:53:10;16.50;99.90
5059;DHT22;2548;52.050;11.036;2023-09-18T05:55:44;16.50;99.90
5059;DHT22;2548;52.050;11.036;2023-09-18T05:58:18;16.60;99.90
5059;DHT22;2548;52.050;11.036;2023-09-18T06:00:51;16.60;99.90
5059;DHT22;2548;52.050;11.036;2023-09-18T06:03:27;16.60;99.90
5059;DHT22;2548;52.050;11.036;2023-09-18T06:05:56;16.70;99.90
5059;DHT22;2548;52.050;11.036;2023-09-18T06:08:24;16.70;99.90
5059;DHT22;2548;52.050;11.036;2023-09-18T06:10:52;16.80;99.90
5059;DHT22;2548;52.050;11.036;2023-09-18T06:13:24;16.80;99.90
5059;DHT22;2548;52.050;11.036;2023-09-18T06:15:53;16.90;99.90
5059;DHT22;2548;52.050;11.036;2023-09-18T06:18:20;17.00;99.90
5059;DHT22;2548;52.050;11.036;2023-09-18T06:20:51;17.10;99.90
5059;DHT22;2548;52.050;11.036;2023-09-18T06:23:21;17.20;99.90
5059;DHT22;2548;52.050;11.036;2023-09-18T06:25:49;17.30;99.90
5059;DHT22;2548;52.050;11.036;2023-09-18T06:28:26;17.40;99.90
5059;DHT22;2548;52.050;11.036;2023-09-18T06:30:54;17.50;99.90
5059;DHT22;2548;52.050;11.036;2023-09-18T06:33:21;17.60;99.90
5059;DHT22;2548;52.050;11.036;2023-09-18T06:35:49;17.70;99.90
5059;DHT22;2548;52.050;11.036;2023-09-18T06:38:20;17.80;99.90
5059;DHT22;2548;52.050;11.036;2023-09-18T06:40:48;17.80;99.90
5059;DHT22;2548;52.050;11.036;2023-09-18T06:43:19;17.90;99.90
5059;DHT22;2548;52.050;11.036;2023-09-18T06:45:48;18.10;99.90
5059;DHT22;2548;52.050;11.036;2023-09-18T06:48:15;18.20;99.90
5059;DHT22;2548;52.050;11.036;2023-09-18T06:50:48;18.20;99.90
5059;DHT22;2548;52.050;11.036;2023-09-18T06:53:16;18.30;99.90
5059;DHT22;2548;52.050;11.036;2023-09-18T06:55:43;18.40;99.90
5059;DHT22;2548;52.050;11.036;2023-09-18T06:58:11;18.50;99.90
5059;DHT22;2548;52.050;11.036;2023-09-18T07:00:39;18.60;99.90
5059;DHT22;2548;52.050;11.036;2023-09-18T07:03:08;18.70;99.90
5059;DHT22;2548;52.050;11.036;2023-09-18T07:05:42;18.70;99.90
5059;DHT22;2548;52.050;11.036;2023-09-18T07:08:12;18.80;99.90
5059;DHT22;2548;52.050;11.036;2023-09-18T07:10:42;18.90;99.90
5059;DHT22;2548;52.050;11.036;2023-09-18T07:13:18;19.00;99.90
5059;DHT22;2548;52.050;11.036;2023-09-18T07:15:49;19.00;99.90
5059;DHT22;2548;52.050;11.036;2023-09-18T07:18:18;19.10;99.90
5059;DHT22;2548;52.050;11.036;2023-09-18T07:20:48;19.20;99.90
5059;DHT22;2548;52.050;11.036;2023-09-18T07:23:16;19.20;99.90
5059;DHT22;2548;52.050;11.036;2023-09-18T07:25:47;19.20;99.90
5059;DHT22;2548;52.050;11.036;2023-09-18T07:28:21;19.30;99.90
5059;DHT22;2548;52.050;11.036;2023-09-18T07:31:03;19.30;99.90
5059;DHT22;2548;52.050;11.036;2023-09-18T07:33:32;19.30;99.90
5059;DHT22;2548;52.050;11.036;2023-09-18T07:35:59;19.30;99.90
5059;DHT22;2548;52.050;11.036;2023-09-18T07:38:33;19.30;99.90
5059;DHT22;2548;52.050;11.036;2023-09-18T07:41:00;19.30;99.90
5059;DHT22;2548;52.050;11.036;2023-09-18T07:43:28;19.40;99.90
5059;DHT22;2548;52.050;11.036;2023-09-18T07:46:12;19.30;99.90
5059;DHT22;2548;52.050;11.036;2023-09-18T07:48:41;19.30;99.90
5059;DHT22;2548;52.050;11.036;2023-09-18T07:51:11;19.20;99.90
5059;DHT22;2548;52.050;11.036;2023-09-18T07:53:39;19.20;99.90
5059;DHT22;2548;52.050;11.036;2023-09-18T07:56:07;19.10;99.90
5059;DHT22;2548;52.050;11.036;2023-09-18T07:58:35;19.20;99.90
5059;DHT22;2548;52.050;11.036;2023-09-18T08:01:05;19.20;99.90
5059;DHT22;2548;52.050;11.036;2023-09-18T08:03:45;19.20;99.90
5059;DHT22;2548;52.050;11.036;2023-09-18T08:06:13;19.20;99.90
5059;DHT22;2548;52.050;11.036;2023-09-18T08:08:48;19.20;99.90
5059;DHT22;2548;52.050;11.036;2023-09-18T08:11:16;19.20;99.90
5059;DHT22;2548;52.050;11.036;2023-09-18T08:13:44;19.30;99.90
5059;DHT22;2548;52.050;11.036;2023-09-18T08:16:12;19.30;99.90
5059;DHT22;2548;52.050;11.036;2023-09-18T08:18:40;19.30;99.90
5059;DHT22;2548;52.050;11.036;2023-09-18T08:21:12;19.30;99.90
5059;DHT22;2548;52.050;11.036;2023-09-18T08:23:40;19.30;99.90
5059;DHT22;2548;52.050;11.036;2023-09-18T08:26:08;19.40;99.90
5059;DHT22;2548;52.050;11.036;2023-09-18T08:28:45;19.50;99.90
5059;DHT22;2548;52.050;11.036;2023-09-18T08:31:15;19.60;99.90
5059;DHT22;2548;52.050;11.036;2023-09-18T08:33:43;19.80;99.90
5059;DHT22;2548;52.050;11.036;2023-09-18T08:36:12;20.00;99.90
5059;DHT22;2548;52.050;11.036;2023-09-18T08:38:42;20.10;99.90
5059;DHT22;2548;52.050;11.036;2023-09-18T08:41:10;20.20;99.90
5059;DHT22;2548;52.050;11.036;2023-09-18T08:43:40;20.20;99.90
5059;DHT22;2548;52.050;11.036;2023-09-18T08:46:10;20.20;99.90
5059;DHT22;2548;52.050;11.036;2023-09-18T08:48:45;20.30;99.90
5059;DHT22;2548;52.050;11.036;2023-09-18T08:51:15;20.30;99.90
5059;DHT22;2548;52.050;11.036;2023-09-18T08:53:47;20.30;99.90
5059;DHT22;2548;52.050;11.036;2023-09-18T08:56:17;20.30;99.90
5059;DHT22;2548;52.050;11.036;2023-09-18T08:58:45;20.30;99.90
5059;DHT22;2548;52.050;11.036;2023-09-18T09:01:13;20.30;99.90
5059;DHT22;2548;52.050;11.036;2023-09-18T09:03:42;20.40;99.90
5059;DHT22;2548;52.050;11.036;2023-09-18T09:06:13;20.40;99.90
5059;DHT22;2548;52.050;11.036;2023-09-18T09:08:41;20.40;99.90
5059;DHT22;2548;52.050;11.036;2023-09-18T09:11:09;20.40;99.90
5059;DHT22;2548;52.050;11.036;2023-09-18T09:13:36;20.40;99.90
5059;DHT22;2548;52.050;11.036;2023-09-18T09:16:18;20.40;99.90
5059;DHT22;2548;52.050;11.036;2023-09-18T09:18:50;20.40;99.90
5059;DHT22;2548;52.050;11.036;2023-09-18T09:21:20;20.40;99.90
5059;DHT22;2548;52.050;11.036;2023-09-18T09:23:50;20.50;99.90
5059;DHT22;2548;52.050;11.036;2023-09-18T09:26:20;20.50;99.90
5059;DHT22;2548;52.050;11.036;2023-09-18T09:28:48;20.60;99.90
5059;DHT22;2548;52.050;11.036;2023-09-18T09:31:26;20.70;99.90
5059;DHT22;2548;52.050;11.036;2023-09-18T09:33:55;20.80;99.90
5059;DHT22;2548;52.050;11.036;2023-09-18T09:36:28;20.80;99.90
5059;DHT22;2548;52.050;11.036;2023-09-18T09:38:56;20.90;99.90
5059;DHT22;2548;52.050;11.036;2023-09-18T09:41:24;21.00;99.90
5059;DHT22;2548;52.050;11.036;2023-09-18T09:43:54;21.10;99.90
5059;DHT22;2548;52.050;11.036;2023-09-18T09:46:22;21.20;99.90
5059;DHT22;2548;52.050;11.036;2023-09-18T09:49:00;21.30;99.90
5059;DHT22;2548;52.050;11.036;2023-09-18T09:51:30;21.50;99.90
5059;DHT22;2548;52.050;11.036;2023-09-18T09:53:58;21.60;99.90
5059;DHT22;2548;52.050;11.036;2023-09-18T09:56:43;21.70;99.90
5059;DHT22;2548;52.050;11.036;2023-09-18T09:59:13;21.90;99.90
5059;DHT22;2548;52.050;11.036;2023-09-18T10:01:43;22.00;99.90
5059;DHT22;2548;52.050;11.036;2023-09-18T10:04:19;22.20;99.90
5059;DHT22;2548;52.050;11.036;2023-09-18T10:06:55;22.50;99.90
5059;DHT22;2548;52.050;11.036;2023-09-18T10:09:26;22.80;99.90
5059;DHT22;2548;52.050;11.036;2023-09-18T10:11:57;23.00;99.90
5059;DHT22;2548;52.050;11.036;2023-09-18T10:14:30;23.20;99.90
5059;DHT22;2548;52.050;11.036;2023-09-18T10:17:04;23.40;99.90
5059;DHT22;2548;52.050;11.036;2023-09-18T10:19:40;23.60;99.90
5059;DHT22;2548;52.050;11.036;2023-09-18T10:22:21;23.70;99.90
5059;DHT22;2548;52.050;11.036;2023-09-18T10:24:55;23.70;99.90
5059;DHT22;2548;52.050;11.036;2023-09-18T10:27:27;23.70;99.90
5059;DHT22;2548;52.050;11.036;2023-09-18T10:29:57;23.70;99.90
5059;DHT22;2548;52.050;11.036;2023-09-18T10:32:26;23.70;99.90
5059;DHT22;2548;52.050;11.036;2023-09-18T10:34:58;23.70;99.90
5059;DHT22;2548;52.050;11.036;2023-09-18T10:37:30;23.70;99.90
5059;DHT22;2548;52.050;11.036;2023-09-18T10:40:00;23.80;99.90
5059;DHT22;2548;52.050;11.036;2023-09-18T10:42:38;23.90;99.90
5059;DHT22;2548;52.050;11.036;2023-09-18T10:45:07;24.10;99.90
5059;DHT22;2548;52.050;11.036;2023-09-18T10:47:37;24.20;99.90
5059;DHT22;2548;52.050;11.036;2023-09-18T10:50:08;24.20;99.90
5059;DHT22;2548;52.050;11.036;2023-09-18T10:52:43;24.30;99.90
5059;DHT22;2548;52.050;11.036;2023-09-18T10:55:14;24.20;99.90
5059;DHT22;2548;52.050;11.036;2023-09-18T10:57:50;24.10;99.90
5059;DHT22;2548;52.050;11.036;2023-09-18T11:00:18;24.10;99.90
5059;DHT22;2548;52.050;11.036;2023-09-18T11:02:50;24.10;99.90
5059;DHT22;2548;52.050;11.036;2023-09-18T11:05:32;24.10;99.90
5059;DHT22;2548;52.050;11.036;2023-09-18T11:08:26;24.00;99.90
5059;DHT22;2548;52.050;11.036;2023-09-18T11:11:07;24.10;99.90
5059;DHT22;2548;52.050;11.036;2023-09-18T11:13:47;24.20;99.90
5059;DHT22;2548;52.050;11.036;2023-09-18T11:16:35;24.20;99.90
5059;DHT22;2548;52.050;11.036;2023-09-18T11:19:09;24.20;99.90
5059;DHT22;2548;52.050;11.036;2023-09-18T11:21:44;24.30;99.90
5059;DHT22;2548;52.050;11.036;2023-09-18T11:24:18;24.40;99.90
5059;DHT22;2548;52.050;11.036;2023-09-18T11:26:51;24.50;99.90
5059;DHT22;2548;52.050;11.036;2023-09-18T11:29:22;24.50;99.90
5059;DHT22;2548;52.050;11.036;2023-09-18T11:31:51;24.60;99.90
5059;DHT22;2548;52.050;11.036;2023-09-18T11:34:22;24.50;99.90
5059;DHT22;2548;52.050;11.036;2023-09-18T11:36:53;24.60;99.90
5059;DHT22;2548;52.050;11.036;2023-09-18T11:39:36;24.60;99.90
5059;DHT22;2548;52.050;11.036;2023-09-18T11:42:10;24.70;99.90
5059;DHT22;2548;52.050;11.036;2023-09-18T11:44:39;24.90;99.90
5059;DHT22;2548;52.050;11.036;2023-09-18T11:47:19;25.00;99.90
5059;DHT22;2548;52.050;11.036;2023-09-18T11:49:56;25.20;99.90
5059;DHT22;2548;52.050;11.036;2023-09-18T11:52:26;25.20;99.90
5059;DHT22;2548;52.050;11.036;2023-09-18T11:54:59;25.30;99.90
5059;DHT22;2548;52.050;11.036;2023-09-18T11:57:27;25.40;99.90
5059;DHT22;2548;52.050;11.036;2023-09-18T11:59:56;25.40;99.90
5059;DHT22;2548;52.050;11.036;2023-09-18T12:02:38;25.40;99.90
5059;DHT22;2548;52.050;11.036;2023-09-18T12:05:10;25.40;99.90
5059;DHT22;2548;52.050;11.036;2023-09-18T12:07:45;25.70;99.90
5059;DHT22;2548;52.050;11.036;2023-09-18T12:10:16;25.90;99.90
5059;DHT22;2548;52.050;11.036;2023-09-18T12:12:47;26.10;99.90
5059;DHT22;2548;52.050;11.036;2023-09-18T12:15:17;26.30;99.90
5059;DHT22;2548;52.050;11.036;2023-09-18T12:17:46;26.20;99.90
5059;DHT22;2548;52.050;11.036;2023-09-18T12:20:23;26.10;99.90
5059;DHT22;2548;52.050;11.036;2023-09-18T12:22:51;26.00;99.90
5059;DHT22;2548;52.050;11.036;2023-09-18T12:25:21;25.80;99.90
5059;DHT22;2548;52.050;11.036;2023-09-18T12:27:56;25.70;99.90
5059;DHT22;2548;52.050;11.036;2023-09-18T12:30:25;25.50;99.90
5059;DHT22;2548;52.050;11.036;2023-09-18T12:33:03;25.50;99.90
5059;DHT22;2548;52.050;11.036;2023-09-18T12:35:31;25.40;99.90
5059;DHT22;2548;52.050;11.036;2023-09-18T12:38:00;25.20;99.90
5059;DHT22;2548;52.050;11.036;2023-09-18T12:40:32;25.10;99.90
5059;DHT22;2548;52.050;11.036;2023-09-18T12:43:07;25.00;99.90
5059;DHT22;2548;52.050;11.036;2023-09-18T12:45:38;24.90;99.90
5059;DHT22;2548;52.050;11.036;2023-09-18T12:48:09;24.70;99.90
5059;DHT22;2548;52.050;11.036;2023-09-18T12:50:44;24.60;99.90
5059;DHT22;2548;52.050;11.036;2023-09-18T12:53:13;24.40;99.90
5059;DHT22;2548;52.050;11.036;2023-09-18T12:55:49;24.20;99.90
5059;DHT22;2548;52.050;11.036;2023-09-18T12:58:19;24.10;99.90
5059;DHT22;2548;52.050;11.036;2023-09-18T13:00:50;24.10;99.90
5059;DHT22;2548;52.050;11.036;2023-09-18T13:03:18;24.00;99.90
5059;DHT22;2548;52.050;11.036;2023-09-18T13:05:46;23.90;99.90
5059;DHT22;2548;52.050;11.036;2023-09-18T13:08:15;23.90;99.90
5059;DHT22;2548;52.050;11.036;2023-09-18T13:10:47;23.80;99.90
5059;DHT22;2548;52.050;11.036;2023-09-18T13:13:21;23.80;99.90
5059;DHT22;2548;52.050;11.036;2023-09-18T13:15:52;23.70;99.90
5059;DHT22;2548;52.050;11.036;2023-09-18T13:18:26;23.70;99.90
5059;DHT22;2548;52.050;11.036;2023-09-18T13:20:54;23.70;99.90
5059;DHT22;2548;52.050;11.036;2023-09-18T13:23:28;23.70;99.90
5059;DHT22;2548;52.050;11.036;2023-09-18T13:26:00;23.70;99.90
5059;DHT22;2548;52.050;11.036;2023-09-18T13:28:31;23.70;99.90
5059;DHT22;2548;52.050;11.036;2023-09-18T13:31:00;23.70;99.90
5059;DHT22;2548;52.050;11.036;2023-09-18T13:33:40;23.80;99.90
5059;DHT22;2548;52.050;11.036;2023-09-18T13:36:12;23.70;99.90
5059;DHT22;2548;52.050;11.036;2023-09-18T13:38:41;23.60;99.90
5059;DHT22;2548;52.050;11.036;2023-09-18T13:41:10;23.60;99.90
5059;DHT22;2548;52.050;11.036;2023-09-18T13:43:41;23.60;99.90
5059;DHT22;2548;52.050;11.036;2023-09-18T13:46:08;23.50;99.90
5059;DHT22;2548;52.050;11.036;2023-09-18T13:48:39;23.50;99.90
5059;DHT22;2548;52.050;11.036;2023-09-18T13:51:06;23.60;99.90
5059;DHT22;2548;52.050;11.036;2023-09-18T13:53:37;23.60;99.90
5059;DHT22;2548;52.050;11.036;2023-09-18T13:56:06;23.60;99.90
5059;DHT22;2548;52.050;11.036;2023-09-18T13:58:36;23.60;99.90
5059;DHT22;2548;52.050;11.036;2023-09-18T14:01:09;23.70;99.90
5059;DHT22;2548;52.050;11.036;2023-09-18T14:03:41;23.70;99.90
5059;DHT22;2548;52.050;11.036;2023-09-18T14:06:17;23.70;99.90
5059;DHT22;2548;52.050;11.036;2023-09-18T14:08:45;23.70;99.90
5059;DHT22;2548;52.050;11.036;2023-09-18T14:11:12;23.80;99.90
5059;DHT22;2548;52.050;11.036;2023-09-18T14:13:43;23.80;99.90
5059;DHT22;2548;52.050;11.036;2023-09-18T14:16:15;23.90;99.90
5059;DHT22;2548;52.050;11.036;2023-09-18T14:18:45;23.90;99.90
5059;DHT22;2548;52.050;11.036;2023-09-18T14:21:15;23.90;99.90
5059;DHT22;2548;52.050;11.036;2023-09-18T14:23:47;23.90;99.90
5059;DHT22;2548;52.050;11.036;2023-09-18T14:26:16;23.90;99.90
5059;DHT22;2548;52.050;11.036;2023-09-18T14:28:44;23.90;99.90
5059;DHT22;2548;52.050;11.036;2023-09-18T14:31:14;23.80;99.90
5059;DHT22;2548;52.050;11.036;2023-09-18T14:33:43;23.80;99.90
5059;DHT22;2548;52.050;11.036;2023-09-18T14:36:13;23.80;99.90
5059;DHT22;2548;52.050;11.036;2023-09-18T14:38:43;23.80;99.90
5059;DHT22;2548;52.050;11.036;2023-09-18T14:41:17;23.70;99.90
5059;DHT22;2548;52.050;11.036;2023-09-18T14:43:50;23.70;99.90
5059;DHT22;2548;52.050;11.036;2023-09-18T14:46:20;23.70;99.90
5059;DHT22;2548;52.050;11.036;2023-09-18T14:48:48;23.60;99.90
5059;DHT22;2548;52.050;11.036;2023-09-18T14:51:16;23.60;99.90
5059;DHT22;2548;52.050;11.036;2023-09-18T14:53:45;23.60;99.90
5059;DHT22;2548;52.050;11.036;2023-09-18T14:56:13;23.60;99.90
5059;DHT22;2548;52.050;11.036;2023-09-18T14:58:41;23.60;99.90
5059;DHT22;2548;52.050;11.036;2023-09-18T15:01:10;23.50;99.90
5059;DHT22;2548;52.050;11.036;2023-09-18T15:03:40;23.50;99.90
5059;DHT22;2548;52.050;11.036;2023-09-18T15:06:08;23.60;99.90
5059;DHT22;2548;52.050;11.036;2023-09-18T15:08:35;23.60;99.90
5059;DHT22;2548;52.050;11.036;2023-09-18T15:11:06;23.50;99.90
5059;DHT22;2548;52.050;11.036;2023-09-18T15:13:34;23.50;99.90
5059;DHT22;2548;52.050;11.036;2023-09-18T15:16:02;23.50;99.90
5059;DHT22;2548;52.050;11.036;2023-09-18T15:18:35;23.50;99.90
5059;DHT22;2548;52.050;11.036;2023-09-18T15:21:12;23.40;99.90
5059;DHT22;2548;52.050;11.036;2023-09-18T15:23:40;23.40;99.90
5059;DHT22;2548;52.050;11.036;2023-09-18T15:26:07;23.40;99.90
5059;DHT22;2548;52.050;11.036;2023-09-18T15:28:38;23.40;99.90
5059;DHT22;2548;52.050;11.036;2023-09-18T15:31:11;23.50;99.90
5059;DHT22;2548;52.050;11.036;2023-09-18T15:33:39;23.50;99.90
5059;DHT22;2548;52.050;11.036;2023-09-18T15:36:08;23.40;99.90
5059;DHT22;2548;52.050;11.036;2023-09-18T15:38:36;23.40;99.90
5059;DHT22;2548;52.050;11.036;2023-09-18T15:41:05;23.40;99.90
5059;DHT22;2548;52.050;11.036;2023-09-18T15:43:34;23.30;99.90
5059;DHT22;2548;52.050;11.036;2023-09-18T15:46:06;23.30;99.90
5059;DHT22;2548;52.050;11.036;2023-09-18T15:48:39;23.30;99.90
5059;DHT22;2548;52.050;11.036;2023-09-18T15:51:11;23.20;99.90
5059;DHT22;2548;52.050;11.036;2023-09-18T15:53:39;23.20;99.90
5059;DHT22;2548;52.050;11.036;2023-09-18T15:56:07;23.10;99.90
5059;DHT22;2548;52.050;11.036;2023-09-18T15:58:44;23.10;99.90
5059;DHT22;2548;52.050;11.036;2023-09-18T16:01:12;23.00;99.90
5059;DHT22;2548;52.050;11.036;2023-09-18T16:03:41;22.90;99.90
5059;DHT22;2548;52.050;11.036;2023-09-18T16:06:15;22.90;99.90